This is the latest recevied weather packets stored in our database for station/object KI5NYZ-13. If no packets are shown the sender has not sent any weather packets the latest 10 day(s).
| Time | Temp. | Humidity | Pressure | Rain* | Wind** | Luminosity | Snow |
|---|---|---|---|---|---|---|---|
| 1778120116 | 19.44° C | 39% | 1010.3 hPa | 0 mm | - | - | - |
| 1778118316 | 20.56° C | 37% | 1009.4 hPa | 0 mm | - | - | - |
| 1778116515 | 22.78° C | 32% | 1008.3 hPa | 0 mm | - | - | - |
| 1778114714 | 23.89° C | 30% | 1007.7 hPa | 0 mm | - | - | - |
| 1778112913 | 24.44° C | 28% | 1007.3 hPa | 0 mm | - | - | - |
| 1778111112 | 24.44° C | 27% | 1007.3 hPa | 0 mm | - | - | - |
| 1778109311 | 24.44° C | 27% | 1007.2 hPa | 0 mm | - | - | - |
| 1778107510 | 23.89° C | 28% | 1007.4 hPa | 0 mm | - | - | - |
| 1778105708 | 23.33° C | 29% | 1007.9 hPa | 0 mm | - | - | - |
| 1778103908 | 23.89° C | 28% | 1008.2 hPa | 0 mm | - | - | - |
| 1778102106 | 22.78° C | 30% | 1008.9 hPa | 0 mm | - | - | - |
| 1778100306 | 22.22° C | 32% | 1009.6 hPa | 0 mm | - | - | - |
| 1778098504 | 21.11° C | 35% | 1010.3 hPa | 0 mm | - | - | - |
| 1778096703 | 20° C | 38% | 1011 hPa | 0 mm | - | - | - |
| 1778094903 | 18.89° C | 41% | 1011.7 hPa | 0 mm | - | - | - |
| 1778093101 | 17.22° C | 46% | 1012.5 hPa | 0 mm | - | - | - |
| 1778091301 | 16.11° C | 49% | 1013.4 hPa | 0 mm | - | - | - |
| 1778089499 | 14.44° C | 54% | 1014.4 hPa | 0 mm | - | - | - |
| 1778087698 | 13.89° C | 56% | 1014.9 hPa | 0 mm | - | - | - |
| 1778085898 | 13.33° C | 59% | 1015.3 hPa | 0.51 mm | - | - | - |
| 1778084096 | 12.22° C | 62% | 1015.5 hPa | 1.02 mm | - | - | - |
| 1778082296 | 11.11° C | 65% | 1015.9 hPa | 0.25 mm | - | - | - |
| 1778080495 | 10.56° C | 66% | 1015.8 hPa | 0 mm | - | - | - |
| 1778078693 | 9.44° C | 69% | 1016.3 hPa | 0 mm | - | - | - |
| 1778076892 | 8.89° C | 72% | 1016.4 hPa | 0 mm | - | - | - |
* Rain latest hour (hover to see other rain measurements)
** Current wind speed in m/s (hover to see current wind gust speed)